Time;durP1;ratioP1;P1;durP2;ratioP2;P2;SDS_P1;SDS_P2;PMS_P1;PMS_P2;Temp;Humidity;BMP_temperature;BMP_pressure;BME280_temperature;BME280_humidity;BME280_pressure;Samples;Min_cycle;Max_cycle;Signal;HPM_P1;HPM_P2
2024/02/13 00:02:21;;;;;;;7.33;6.17;;;;;;;6.46;92.06;100239.63;5048844;28;20202;-76
2024/02/13 00:04:48;;;;;;;7.13;6.53;;;;;;;6.51;92.38;100237.84;5049566;28;20354;-76
2024/02/13 00:07:15;;;;;;;6.87;6.27;;;;;;;6.54;90.31;100256.00;5049251;28;20731;-76
2024/02/13 00:09:43;;;;;;;6.87;6.27;;;;;;;6.61;90.51;100272.38;5048931;28;20280;-76
2024/02/13 00:12:11;;;;;;;8.20;7.43;;;;;;;6.41;92.19;100263.84;5050312;28;20617;-76
2024/02/13 00:14:38;;;;;;;7.07;6.47;;;;;;;6.51;92.16;100253.41;5049191;28;20286;-76
2024/02/13 00:17:04;;;;;;;7.10;6.40;;;;;;;6.50;90.86;100259.50;5048900;28;20221;-76
2024/02/13 00:19:31;;;;;;;9.97;9.07;;;;;;;6.18;92.87;100253.56;5049294;28;20203;-76
2024/02/13 00:21:57;;;;;;;9.17;8.27;;;;;;;6.32;93.54;100223.25;5049865;28;20212;-76
2024/02/13 00:24:24;;;;;;;9.63;8.83;;;;;;;6.16;94.72;100214.72;5049789;28;20205;-76
2024/02/13 00:26:51;;;;;;;9.50;8.70;;;;;;;5.86;95.09;100210.47;5049001;28;20874;-76
2024/02/13 00:29:19;;;;;;;10.73;9.73;;;;;;;5.78;96.78;100176.84;5048922;28;20208;-75
2024/02/13 00:31:45;;;;;;;11.17;10.10;;;;;;;5.93;98.26;100147.44;5048407;28;20694;-76
2024/02/13 00:34:12;;;;;;;11.50;10.40;;;;;;;6.22;97.65;100143.84;5050041;28;20267;-76
2024/02/13 00:36:38;;;;;;;8.70;7.90;;;;;;;6.32;95.79;100164.53;5049172;28;20290;-76
2024/02/13 00:39:04;;;;;;;10.17;9.27;;;;;;;6.38;95.79;100170.53;5049722;28;20206;-76
2024/02/13 00:41:31;;;;;;;9.83;9.00;;;;;;;6.51;94.80;100177.38;5049561;28;20224;-76
2024/02/13 00:43:57;;;;;;;10.90;9.97;;;;;;;6.79;93.88;100203.97;5049832;28;20212;-76
2024/02/13 00:46:25;;;;;;;10.93;10.03;;;;;;;6.71;93.63;100221.31;5051311;28;20243;-76
2024/02/13 00:48:52;;;;;;;11.93;10.83;;;;;;;6.72;92.46;100241.22;5053172;28;20237;-77
2024/02/13 00:51:18;;;;;;;11.13;9.63;;;;;;;6.79;93.20;100245.47;5052345;28;20654;-76
2024/02/13 00:53:45;;;;;;;10.60;9.57;;;;;;;6.78;92.71;100259.34;5053202;28;20212;-77
2024/02/13 00:56:11;;;;;;;10.57;9.67;;;;;;;6.61;93.16;100264.59;5053800;28;20227;-77
2024/02/13 00:58:37;;;;;;;10.27;9.20;;;;;;;6.70;93.45;100271.47;5053517;28;20271;-77
2024/02/13 01:01:04;;;;;;;10.90;9.17;;;;;;;6.73;92.52;100271.47;5053726;28;20231;-77
2024/02/13 01:03:34;;;;;;;11.33;10.27;;;;;;;6.39;92.13;100282.00;5054472;28;20210;-77
2024/02/13 01:06:00;;;;;;;11.00;10.00;;;;;;;6.63;92.86;100280.16;5053248;28;20228;-77
2024/02/13 01:08:27;;;;;;;12.03;10.90;;;;;;;6.78;91.73;100297.34;5053317;28;20729;-77
2024/02/13 01:10:53;;;;;;;11.10;10.00;;;;;;;6.88;91.67;100304.25;5052454;28;20201;-76
2024/02/13 01:13:20;;;;;;;12.00;11.00;;;;;;;6.55;91.43;100327.72;5053138;28;20205;-76
2024/02/13 01:15:47;;;;;;;11.13;10.20;;;;;;;6.32;92.68;100316.59;5053645;28;20307;-77
2024/02/13 01:18:14;;;;;;;9.93;8.90;;;;;;;6.50;92.46;100313.94;5053130;28;20687;-77
2024/02/13 01:20:42;;;;;;;10.80;9.87;;;;;;;6.47;92.12;100323.47;5053467;28;20232;-77
2024/02/13 01:23:11;;;;;;;12.17;11.07;;;;;;;6.53;91.96;100328.63;5053467;28;20201;-77
2024/02/13 01:25:38;;;;;;;12.23;11.13;;;;;;;6.43;91.72;100329.53;5052514;28;20296;-77
2024/02/13 01:28:07;;;;;;;10.53;9.47;;;;;;;6.60;91.52;100335.50;5052760;28;20291;-77
2024/02/13 01:30:34;;;;;;;11.27;10.10;;;;;;;6.64;91.60;100344.13;5051845;28;20201;-77
2024/02/13 01:33:00;;;;;;;12.17;11.03;;;;;;;6.34;91.83;100353.72;5051938;28;20251;-77
2024/02/13 01:35:27;;;;;;;10.63;9.63;;;;;;;6.41;92.83;100336.44;5052116;28;20713;-77
2024/02/13 01:37:56;;;;;;;10.17;9.27;;;;;;;6.34;92.73;100339.06;5052523;28;20209;-77
2024/02/13 01:40:22;;;;;;;11.80;10.70;;;;;;;6.16;94.03;100327.03;5052438;28;20703;-77
2024/02/13 01:42:49;;;;;;;11.90;10.80;;;;;;;6.12;95.53;100301.97;5052339;28;20211;-77
2024/02/13 01:45:16;;;;;;;16.10;12.73;;;;;;;6.34;95.60;100276.84;5052733;28;20205;-77
2024/02/13 01:47:44;;;;;;;14.33;12.57;;;;;;;6.50;95.40;100274.16;5051724;28;20204;-77
2024/02/13 01:50:14;;;;;;;13.07;11.87;;;;;;;6.48;95.43;100281.09;5041794;28;20202;-78
2024/02/13 01:52:42;;;;;;;13.70;12.50;;;;;;;6.34;95.34;100287.22;5052147;28;20213;-77
2024/02/13 01:55:12;;;;;;;14.37;12.80;;;;;;;6.26;95.92;100278.59;5051487;28;20666;-76
2024/02/13 01:57:40;;;;;;;13.77;11.77;;;;;;;6.49;93.58;100294.06;5051629;28;20590;-76
2024/02/13 02:00:09;;;;;;;13.53;12.13;;;;;;;6.73;93.39;100308.63;5051655;28;20214;-76
2024/02/13 02:02:36;;;;;;;13.70;12.40;;;;;;;6.56;93.40;100338.97;5051518;28;20725;-77
2024/02/13 02:05:06;;;;;;;12.20;11.00;;;;;;;6.67;93.18;100337.19;5051599;28;20257;-76
2024/02/13 02:07:33;;;;;;;12.87;11.43;;;;;;;6.62;93.38;100338.06;5052059;28;20213;-76
2024/02/13 02:09:59;;;;;;;13.70;12.33;;;;;;;6.49;93.25;100335.53;5051147;28;20201;-76
2024/02/13 02:12:27;;;;;;;12.20;10.97;;;;;;;6.54;93.78;100325.13;5051687;28;20207;-76
2024/02/13 02:14:53;;;;;;;12.70;11.40;;;;;;;6.54;94.24;100331.22;5051435;28;20664;-76
2024/02/13 02:17:20;;;;;;;12.53;11.33;;;;;;;6.52;93.22;100327.75;5050468;28;20764;-76
2024/02/13 02:19:46;;;;;;;12.80;11.50;;;;;;;6.86;92.99;100332.78;5051474;28;20216;-74
2024/02/13 02:22:13;;;;;;;12.97;11.77;;;;;;;6.91;91.45;100358.69;5050882;28;20279;-77
2024/02/13 02:24:39;;;;;;;12.53;11.30;;;;;;;7.06;91.45;100371.59;5050972;28;20264;-76
2024/02/13 02:27:07;;;;;;;14.10;11.27;;;;;;;7.13;90.66;100388.84;5050678;28;20267;-76
2024/02/13 02:29:36;;;;;;;12.20;11.00;;;;;;;6.73;90.65;100427.94;5050758;28;20236;-76
2024/02/13 02:32:03;;;;;;;13.47;12.07;;;;;;;6.64;91.31;100420.22;5050671;28;20814;-76
2024/02/13 02:34:31;;;;;;;12.67;11.47;;;;;;;6.61;92.58;100402.06;5051188;28;20212;-75
2024/02/13 02:36:57;;;;;;;15.33;12.83;;;;;;;6.56;93.51;100398.59;5050750;28;20247;-76
2024/02/13 02:39:24;;;;;;;13.63;12.33;;;;;;;6.67;92.71;100383.88;5051492;28;20278;-75
2024/02/13 02:41:50;;;;;;;14.03;12.63;;;;;;;6.63;92.86;100387.34;5051603;28;20661;-76
2024/02/13 02:44:19;;;;;;;13.57;12.27;;;;;;;6.60;92.92;100389.09;5051288;28;20256;-76
2024/02/13 02:46:47;;;;;;;15.30;12.23;;;;;;;6.63;93.55;100374.38;5049202;28;20233;-76
2024/02/13 02:49:15;;;;;;;12.57;11.47;;;;;;;6.74;92.41;100371.78;5049944;28;20664;-76
2024/02/13 02:51:43;;;;;;;12.73;11.70;;;;;;;6.93;92.06;100393.28;5050217;28;20236;-76
2024/02/13 02:54:10;;;;;;;12.73;11.60;;;;;;;6.57;91.52;100421.09;5050929;28;20211;-76
2024/02/13 02:56:37;;;;;;;12.63;11.00;;;;;;;6.74;91.39;100421.91;5049865;28;20278;-76
2024/02/13 02:59:03;;;;;;;12.00;10.90;;;;;;;6.66;90.33;100434.03;5050844;28;20231;-75
2024/02/13 03:01:31;;;;;;;12.87;10.53;;;;;;;6.55;90.14;100453.94;5049397;28;20225;-76
2024/02/13 03:03:57;;;;;;;11.80;10.63;;;;;;;6.73;90.04;100458.22;5051115;28;20204;-76
2024/02/13 03:06:24;;;;;;;11.77;10.87;;;;;;;6.81;89.56;100469.44;5049923;28;20247;-76
2024/02/13 03:08:50;;;;;;;12.77;10.77;;;;;;;6.64;89.44;100491.94;5050951;28;20650;-76
2024/02/13 03:11:17;;;;;;;12.10;10.60;;;;;;;6.54;89.61;100497.19;5050445;28;20254;-76
2024/02/13 03:13:43;;;;;;;14.10;10.40;;;;;;;6.37;89.89;100498.91;5050589;28;20209;-76
2024/02/13 03:16:09;;;;;;;13.07;11.33;;;;;;;6.28;90.73;100480.78;5048931;28;20233;-76
2024/02/13 03:18:37;;;;;;;10.53;9.53;;;;;;;6.48;91.14;100467.78;5050745;28;20753;-76
2024/02/13 03:21:05;;;;;;;15.13;11.70;;;;;;;6.18;91.33;100473.88;5049809;28;20327;-76
2024/02/13 03:23:31;;;;;;;13.70;12.30;;;;;;;6.23;92.46;100452.28;5049974;28;20657;-76
2024/02/13 03:25:58;;;;;;;11.77;10.77;;;;;;;6.44;91.80;100445.31;5049749;28;20233;-75
2024/02/13 03:28:24;;;;;;;13.20;12.00;;;;;;;6.60;91.19;100461.72;5049886;28;20201;-76
2024/02/13 03:30:53;;;;;;;11.07;10.03;;;;;;;6.60;91.19;100469.50;5050258;28;20247;-76
2024/02/13 03:33:20;;;;;;;9.57;8.83;;;;;;;6.66;89.92;100478.13;5049526;28;20205;-76
2024/02/13 03:35:48;;;;;;;11.53;10.43;;;;;;;6.66;89.27;100501.47;5049234;28;20243;-75
2024/02/13 03:38:14;;;;;;;11.10;9.90;;;;;;;6.60;88.83;100513.56;5049895;28;20217;-76
2024/02/13 03:40:41;;;;;;;9.90;8.90;;;;;;;6.62;88.70;100527.41;5049929;28;20667;-76
2024/02/13 03:43:07;;;;;;;10.30;9.40;;;;;;;6.64;87.79;100541.22;5049607;28;20239;-76
2024/02/13 03:45:33;;;;;;;9.63;8.83;;;;;;;6.61;87.76;100554.22;5049937;28;20226;-76
2024/02/13 03:48:00;;;;;;;9.13;8.30;;;;;;;6.50;87.43;100568.06;5050088;28;20219;-76
2024/02/13 03:50:27;;;;;;;10.23;9.27;;;;;;;6.51;87.20;100569.78;5049626;28;20209;-76
2024/02/13 03:52:55;;;;;;;9.93;9.07;;;;;;;6.50;86.99;100586.22;5049640;28;20294;-76
2024/02/13 03:55:22;;;;;;;11.40;9.43;;;;;;;6.44;87.26;100601.78;5040580;28;20240;-76
2024/02/13 03:57:49;;;;;;;11.43;9.57;;;;;;;6.38;86.61;100609.53;5049417;28;20209;-76
2024/02/13 04:00:15;;;;;;;9.37;8.57;;;;;;;6.32;86.29;100617.28;5049840;28;20341;-76
2024/02/13 04:02:42;;;;;;;9.17;8.37;;;;;;;6.24;86.51;100625.06;5049118;28;20236;-76
2024/02/13 04:05:09;;;;;;;9.67;8.63;;;;;;;6.20;87.33;100612.97;5049378;28;20214;-76
2024/02/13 04:07:35;;;;;;;7.97;6.93;;;;;;;6.21;87.10;100621.63;5042608;28;20221;-76
2024/02/13 04:10:03;;;;;;;7.80;7.20;;;;;;;6.18;86.55;100630.22;5049119;28;20659;-76
2024/02/13 04:12:29;;;;;;;8.87;6.37;;;;;;;6.15;86.20;100640.63;5049978;28;20201;-76
2024/02/13 04:14:56;;;;;;;8.20;6.67;;;;;;;6.11;85.33;100646.66;5050137;28;20209;-76
2024/02/13 04:17:23;;;;;;;6.40;5.80;;;;;;;6.03;85.17;100656.13;5041442;28;20315;-76
2024/02/13 04:19:49;;;;;;;6.27;5.67;;;;;;;5.98;85.68;100658.69;5052283;28;20687;-76
2024/02/13 04:22:15;;;;;;;6.90;6.20;;;;;;;6.01;85.51;100660.44;5052970;28;20224;-76
2024/02/13 04:24:42;;;;;;;7.33;6.60;;;;;;;5.96;85.18;100666.44;5051227;28;20205;-76
2024/02/13 04:27:09;;;;;;;7.17;6.30;;;;;;;5.93;85.25;100681.97;5052907;28;20233;-75
2024/02/13 04:29:36;;;;;;;5.77;5.27;;;;;;;5.91;84.67;100686.28;5053285;28;20722;-75
2024/02/13 04:32:03;;;;;;;5.67;5.07;;;;;;;5.86;85.28;100679.34;5052766;28;20636;-75
2024/02/13 04:34:30;;;;;;;5.77;4.90;;;;;;;5.83;84.59;100687.97;5053111;28;20236;-76
2024/02/13 04:36:57;;;;;;;5.17;4.67;;;;;;;5.84;84.45;100688.84;5052682;28;20251;-75
2024/02/13 04:39:23;;;;;;;5.37;4.80;;;;;;;5.79;84.69;100699.19;5052853;28;20199;-76
2024/02/13 04:41:49;;;;;;;5.57;5.13;;;;;;;5.77;83.98;100704.34;5053003;28;20292;-76
2024/02/13 04:44:17;;;;;;;6.27;5.07;;;;;;;5.61;83.60;100706.84;5053349;28;20209;-75
2024/02/13 04:46:43;;;;;;;6.47;5.03;;;;;;;5.62;84.61;100696.50;5051858;28;20226;-76
2024/02/13 04:49:10;;;;;;;4.90;4.50;;;;;;;5.44;84.09;100699.84;5053094;28;20216;-76
2024/02/13 04:51:37;;;;;;;6.07;5.20;;;;;;;5.38;84.84;100692.91;5052397;28;20209;-76
2024/02/13 04:54:04;;;;;;;5.13;4.67;;;;;;;5.28;85.72;100678.16;5051301;28;20267;-76
2024/02/13 04:56:31;;;;;;;5.30;4.90;;;;;;;5.29;85.72;100668.69;5051653;28;20271;-76
2024/02/13 04:58:57;;;;;;;5.37;4.83;;;;;;;5.31;85.61;100660.09;5051050;28;20219;-76
2024/02/13 05:01:25;;;;;;;7.03;5.00;;;;;;;5.29;85.09;100666.97;5050959;28;20218;-76
2024/02/13 05:09:20;;;;;;;5.90;4.17;;;;;;;5.24;85.16;100673.84;5052677;28;20223;-76
2024/02/13 05:11:46;;;;;;;5.43;4.10;;;;;;;5.27;85.35;100671.28;5052740;28;20216;-75
2024/02/13 05:14:13;;;;;;;7.13;6.40;;;;;;;5.30;85.04;100673.88;5052915;28;20205;-76
2024/02/13 05:16:41;;;;;;;9.33;6.77;;;;;;;5.45;85.76;100667.03;5050973;28;20280;-76
2024/02/13 05:19:08;;;;;;;7.20;6.50;;;;;;;5.55;84.98;100668.84;5051701;28;20206;-76
2024/02/13 05:21:35;;;;;;;7.97;6.23;;;;;;;5.56;85.33;100686.09;5051947;28;20230;-76
2024/02/13 05:24:03;;;;;;;6.73;6.00;;;;;;;5.52;85.04;100679.19;5052025;28;20212;-76
2024/02/13 05:26:30;;;;;;;8.00;6.13;;;;;;;5.49;84.81;100679.16;5050396;28;20250;-76
2024/02/13 05:28:57;;;;;;;6.43;5.83;;;;;;;5.40;84.28;100686.88;5052810;28;20278;-76
2024/02/13 05:31:24;;;;;;;7.87;6.17;;;;;;;5.37;84.61;100698.94;5051800;28;20207;-76
2024/02/13 05:33:52;;;;;;;6.63;6.00;;;;;;;5.30;84.57;100707.50;5052431;28;20637;-76
2024/02/13 05:36:18;;;;;;;6.37;5.77;;;;;;;5.31;83.95;100709.25;5051468;28;20234;-77
2024/02/13 05:38:46;;;;;;;6.30;5.70;;;;;;;5.30;84.42;100715.28;5051905;28;20206;-76
2024/02/13 05:41:13;;;;;;;6.47;5.97;;;;;;;5.26;84.08;100721.28;5051350;28;20211;-76
2024/02/13 05:43:41;;;;;;;6.20;5.60;;;;;;;5.24;84.21;100722.16;5051275;28;20835;-76
2024/02/13 05:46:07;;;;;;;6.00;5.47;;;;;;;5.24;84.32;100711.78;5050746;28;20644;-76
2024/02/13 05:48:35;;;;;;;6.87;5.53;;;;;;;5.21;84.98;100711.75;5051060;28;20257;-76
2024/02/13 05:51:04;;;;;;;9.03;5.27;;;;;;;5.20;85.32;100704.88;5051948;28;20208;-76
2024/02/13 05:53:30;;;;;;;6.47;5.70;;;;;;;5.10;85.47;100704.78;5051692;28;20209;-76
2024/02/13 05:55:57;;;;;;;9.87;7.40;;;;;;;5.12;88.06;100642.72;5049986;28;20233;-76
2024/02/13 05:58:27;;;;;;;7.30;5.97;;;;;;;5.18;87.06;100634.97;5052055;28;20273;-76
2024/02/13 06:00:54;;;;;;;7.63;6.20;;;;;;;5.20;86.77;100633.25;5049877;28;20674;-76
2024/02/13 06:03:20;;;;;;;9.47;6.83;;;;;;;5.14;86.39;100651.34;5050582;28;20242;-76
2024/02/13 06:05:47;;;;;;;11.63;10.53;;;;;;;4.99;88.37;100631.38;5051046;28;20227;-76
2024/02/13 06:08:14;;;;;;;8.17;6.50;;;;;;;5.10;88.06;100616.81;5050219;28;20677;-76
2024/02/13 06:10:41;;;;;;;11.47;8.30;;;;;;;5.07;87.91;100613.34;5051674;28;20214;-76
2024/02/13 06:13:07;;;;;;;8.10;7.30;;;;;;;4.98;88.60;100606.41;5051449;28;20653;-76
2024/02/13 06:15:35;;;;;;;9.20;7.57;;;;;;;5.07;88.32;100603.84;5041974;28;20249;-76
2024/02/13 06:18:02;;;;;;;8.87;7.23;;;;;;;5.07;88.42;100611.59;5049765;28;20216;-76
2024/02/13 06:20:29;;;;;;;8.50;7.67;;;;;;;5.04;87.88;100624.53;5050842;28;20212;-76
2024/02/13 06:22:55;;;;;;;8.70;7.73;;;;;;;5.08;87.85;100621.13;5051034;28;20227;-76
2024/02/13 06:25:23;;;;;;;9.80;8.80;;;;;;;5.03;88.06;100627.09;5051050;28;20262;-76
2024/02/13 06:27:50;;;;;;;10.10;9.10;;;;;;;5.00;88.09;100630.56;5051260;28;20205;-76
2024/02/13 06:30:17;;;;;;;9.83;8.93;;;;;;;4.96;87.73;100619.31;5051214;28;20231;-76
2024/02/13 06:32:44;;;;;;;10.73;9.77;;;;;;;4.88;88.91;100626.16;5050277;28;20208;-76
2024/02/13 06:35:11;;;;;;;13.70;10.93;;;;;;;4.90;88.83;100614.09;5049868;28;20683;-76
2024/02/13 06:37:39;;;;;;;11.23;10.27;;;;;;;4.79;89.52;100615.72;5051016;28;20227;-76
2024/02/13 06:40:07;;;;;;;11.03;9.93;;;;;;;4.78;89.79;100607.13;5050959;28;20212;-76
2024/02/13 06:42:35;;;;;;;11.97;10.27;;;;;;;4.65;92.64;100570.81;5049666;28;20227;-76
2024/02/13 06:45:02;;;;;;;12.33;11.17;;;;;;;4.67;91.94;100556.19;5050696;28;20203;-76
2024/02/13 06:47:28;;;;;;;11.00;10.00;;;;;;;4.76;91.34;100554.53;5050259;28;20256;-76
2024/02/13 06:49:54;;;;;;;11.37;10.27;;;;;;;4.80;89.97;100567.47;5050756;28;20210;-77
2024/02/13 06:52:21;;;;;;;11.03;10.00;;;;;;;4.73;89.70;100587.25;5050442;28;20632;-76
2024/02/13 06:54:48;;;;;;;13.33;10.77;;;;;;;4.68;91.60;100579.47;5050539;28;20731;-76
2024/02/13 06:57:14;;;;;;;10.80;9.80;;;;;;;4.85;90.66;100574.41;5052976;28;20226;-79
2024/02/13 06:59:42;;;;;;;10.83;9.87;;;;;;;4.82;90.11;100592.50;5055778;28;20209;-79
2024/02/13 07:02:09;;;;;;;13.67;10.70;;;;;;;4.87;90.89;100585.63;5053948;28;20235;-77
2024/02/13 07:04:36;;;;;;;11.17;10.03;;;;;;;4.91;90.15;100594.25;5051076;28;20317;-77
2024/02/13 07:07:05;;;;;;;11.70;10.43;;;;;;;4.93;90.35;100598.59;5050925;28;20670;-77
2024/02/13 07:09:33;;;;;;;10.47;9.37;;;;;;;4.96;90.26;100608.09;5056043;28;20209;-77
2024/02/13 07:11:59;;;;;;;10.43;9.37;;;;;;;4.95;89.55;100620.16;5059391;28;20214;-77
2024/02/13 07:14:27;;;;;;;11.03;9.93;;;;;;;4.97;90.18;100615.88;5058009;28;20210;-77
2024/02/13 07:16:55;;;;;;;10.83;9.83;;;;;;;5.05;90.10;100617.63;5058084;28;20253;-78
2024/02/13 07:19:25;;;;;;;14.67;10.30;;;;;;;5.08;90.48;100609.91;5062957;28;20246;-78
2024/02/13 07:22:09;;;;;;;11.83;10.63;;;;;;;5.07;89.93;100618.50;5059496;28;20218;-78
2024/02/13 07:24:36;;;;;;;10.60;9.50;;;;;;;5.03;90.28;100616.75;5051904;28;20297;-77
2024/02/13 07:27:04;;;;;;;12.13;10.73;;;;;;;4.95;91.10;100617.56;5051830;28;20232;-78
2024/02/13 07:29:31;;;;;;;12.43;11.10;;;;;;;5.19;91.92;100592.69;5054479;28;20327;-78
2024/02/13 07:32:00;;;;;;;10.57;9.50;;;;;;;5.34;93.75;100545.34;5053889;28;20347;-78
2024/02/13 07:34:28;;;;;;;10.37;9.43;;;;;;;5.40;93.08;100540.19;5053821;28;20208;-78
2024/02/13 07:36:54;;;;;;;10.60;9.70;;;;;;;5.41;91.68;100562.63;5055074;28;20237;-77
2024/02/13 07:39:21;;;;;;;11.07;9.20;;;;;;;5.31;90.58;100595.38;5052097;28;20237;-77
2024/02/13 07:41:47;;;;;;;10.70;9.63;;;;;;;5.07;90.37;100611.59;5051245;28;20206;-76
2024/02/13 07:44:14;;;;;;;12.57;11.40;;;;;;;5.41;91.01;100608.34;5049832;28;20439;-77
2024/02/13 07:46:40;;;;;;;11.77;9.93;;;;;;;5.50;90.77;100624.78;5042063;28;20232;-77
2024/02/13 07:49:09;;;;;;;12.57;11.48;;;;;;;5.61;90.33;100630.03;5049217;28;20980;-77
2024/02/13 07:51:37;;;;;;;11.60;9.70;;;;;;;5.55;89.91;100648.13;5051319;28;20211;-76
2024/02/13 07:54:04;;;;;;;10.73;9.47;;;;;;;5.33;89.73;100652.31;5054543;28;20284;-76
2024/02/13 07:56:30;;;;;;;9.63;8.63;;;;;;;5.50;90.25;100635.16;5054612;28;20288;-76
2024/02/13 07:58:57;;;;;;;10.70;9.83;;;;;;;5.58;91.17;100624.84;5054723;28;20737;-76
2024/02/13 08:01:25;;;;;;;11.40;9.00;;;;;;;5.65;90.33;100636.06;5055360;28;20302;-77
2024/02/13 08:03:51;;;;;;;9.60;8.50;;;;;;;5.62;89.79;100643.84;5055565;28;20225;-76
2024/02/13 08:06:19;;;;;;;10.17;8.23;;;;;;;5.72;89.68;100651.66;5055136;28;20327;-76
2024/02/13 08:08:46;;;;;;;10.43;8.50;;;;;;;5.66;89.75;100661.97;5055350;28;20212;-77
2024/02/13 08:11:15;;;;;;;8.63;7.70;;;;;;;5.73;89.83;100668.06;5055379;28;20209;-77
2024/02/13 08:13:41;;;;;;;9.40;8.43;;;;;;;5.72;89.30;100671.50;5055994;28;20195;-77
2024/02/13 08:16:08;;;;;;;8.83;8.10;;;;;;;5.88;89.73;100656.91;5051983;28;20220;-77
2024/02/13 08:18:35;;;;;;;9.47;8.57;;;;;;;5.97;89.51;100668.19;5055042;28;20679;-77
2024/02/13 08:21:01;;;;;;;10.10;8.23;;;;;;;6.07;89.02;100681.19;5054702;28;20209;-77
2024/02/13 08:23:29;;;;;;;11.03;8.00;;;;;;;5.97;87.21;100706.19;5055155;28;20864;-77
2024/02/13 08:25:55;;;;;;;9.53;6.97;;;;;;;6.07;86.72;100715.75;5053958;28;20231;-76
2024/02/13 08:28:22;;;;;;;9.60;6.93;;;;;;;6.30;87.89;100718.44;5054173;28;20582;-76
2024/02/13 08:30:49;;;;;;;8.70;6.70;;;;;;;6.38;87.17;100727.94;5054703;28;20210;-76
2024/02/13 08:33:16;;;;;;;7.60;6.80;;;;;;;6.38;86.46;100752.13;5053896;28;20197;-76
2024/02/13 08:35:42;;;;;;;8.27;7.33;;;;;;;6.30;86.47;100777.16;5054125;28;20229;-76
2024/02/13 08:38:08;;;;;;;12.13;6.90;;;;;;;6.13;86.34;100783.16;5054265;28;20201;-76
2024/02/13 08:40:36;;;;;;;9.13;7.03;;;;;;;6.38;85.71;100791.00;5054303;28;20209;-76
2024/02/13 08:43:02;;;;;;;7.93;6.90;;;;;;;6.34;85.56;100799.66;5053534;28;20786;-76
2024/02/13 08:45:29;;;;;;;8.37;6.50;;;;;;;6.35;86.39;100791.88;5053959;28;20760;-76
2024/02/13 08:47:55;;;;;;;7.50;6.90;;;;;;;6.36;87.31;100777.19;5053243;28;20739;-76
2024/02/13 08:50:21;;;;;;;10.10;6.37;;;;;;;6.38;86.15;100780.66;5054105;28;20677;-76
2024/02/13 08:52:48;;;;;;;6.60;6.00;;;;;;;6.41;85.99;100806.59;5053919;28;20207;-76
2024/02/13 08:55:15;;;;;;;7.97;6.17;;;;;;;6.48;84.59;100816.16;5054089;28;20261;-76
2024/02/13 08:57:43;;;;;;;7.10;5.90;;;;;;;6.57;85.27;100820.50;5053766;28;20232;-76
2024/02/13 09:00:11;;;;;;;6.93;6.27;;;;;;;6.65;85.60;100817.94;5054228;28;20222;-76
2024/02/13 09:02:38;;;;;;;8.03;7.23;;;;;;;6.31;86.16;100810.88;5053484;28;20232;-76
2024/02/13 09:05:05;;;;;;;6.77;5.83;;;;;;;6.44;86.03;100822.19;5052679;28;20215;-76
2024/02/13 09:07:31;;;;;;;8.17;6.23;;;;;;;6.44;85.33;100819.59;5053152;28;20197;-76
2024/02/13 09:09:58;;;;;;;8.27;6.37;;;;;;;6.29;84.99;100828.16;5054227;28;20208;-76
2024/02/13 09:12:25;;;;;;;7.93;6.93;;;;;;;6.54;86.18;100810.09;5053708;28;20261;-76
2024/02/13 09:14:52;;;;;;;8.87;6.63;;;;;;;6.43;84.94;100824.75;5054075;28;20213;-76
2024/02/13 09:17:18;;;;;;;7.27;6.57;;;;;;;6.46;85.01;100833.44;5053111;28;20221;-76
2024/02/13 09:19:45;;;;;;;6.70;5.73;;;;;;;6.76;85.08;100843.03;5052898;28;20205;-78
2024/02/13 09:22:13;;;;;;;7.93;6.07;;;;;;;6.92;84.86;100853.47;5057103;28;20208;-78
2024/02/13 09:25:00;;;;;;;7.83;6.47;;;;;;;6.93;83.37;100884.59;5057333;28;20227;-79
2024/02/13 09:34:12;;;;;;;8.63;6.63;;;;;;;6.88;83.19;100925.25;4994007;28;20221;-81
2024/02/13 09:36:43;;;;;;;6.50;5.90;;;;;;;6.87;82.65;100930.44;5003908;28;20241;-80
2024/02/13 09:39:28;;;;;;;7.87;6.13;;;;;;;6.76;82.77;100946.81;5056689;28;20200;-81
2024/02/13 09:41:55;;;;;;;6.37;5.83;;;;;;;6.83;82.37;100944.25;5056957;28;20336;-78
2024/02/13 09:44:37;;;;;;;6.80;6.30;;;;;;;6.81;82.04;100966.72;5056111;28;20235;-80
2024/02/13 09:49:52;;;;;;;6.70;6.00;;;;;;;7.00;81.77;100971.16;5040276;28;20217;-79
2024/02/13 09:52:20;;;;;;;7.87;7.07;;;;;;;7.07;82.04;100969.44;5055251;28;20198;-78
2024/02/13 09:54:50;;;;;;;7.40;6.60;;;;;;;7.15;81.16;100973.81;5056264;28;20230;-78
2024/02/13 09:57:31;;;;;;;7.37;6.73;;;;;;;7.29;81.29;100992.00;5056589;28;20229;-79
2024/02/13 10:00:04;;;;;;;7.53;6.80;;;;;;;7.25;80.56;101010.19;5049355;28;20263;-81
2024/02/13 10:02:33;;;;;;;9.03;7.07;;;;;;;7.08;80.30;101016.16;5054777;28;20682;-81
2024/02/13 10:11:01;;;;;;;7.47;6.87;;;;;;;7.16;80.78;101030.06;4989247;28;20726;-83
2024/02/13 10:16:18;;;;;;;7.97;7.17;;;;;;;7.22;79.56;101039.59;4982218;28;20240;-79
2024/02/13 10:19:14;;;;;;;10.20;7.90;;;;;;;7.50;80.16;101063.09;5035947;28;20257;-81
2024/02/13 10:21:42;;;;;;;8.17;7.33;;;;;;;7.01;79.44;101078.44;5035493;28;20426;-78
2024/02/13 10:24:11;;;;;;;8.33;7.53;;;;;;;6.71;80.49;101079.97;5036450;28;20226;-81
2024/02/13 10:26:38;;;;;;;9.23;8.23;;;;;;;7.00;81.35;101032.53;5036007;28;20226;-80
2024/02/13 10:29:06;;;;;;;8.30;7.50;;;;;;;7.34;81.58;101025.81;5035572;28;20672;-82
2024/02/13 10:31:36;;;;;;;8.97;8.00;;;;;;;7.30;81.02;101043.09;5034547;28;20202;-81
2024/02/13 10:34:07;;;;;;;8.27;7.50;;;;;;;7.38;79.70;101063.91;5035960;28;20202;-83
2024/02/13 10:36:35;;;;;;;7.87;7.10;;;;;;;7.18;79.78;101075.94;5034999;28;20222;-81
2024/02/13 10:39:06;;;;;;;7.97;7.27;;;;;;;7.38;81.60;101052.66;5035984;28;20233;-81
2024/02/13 10:41:37;;;;;;;8.13;7.33;;;;;;;7.40;80.31;101051.78;5037216;28;20208;-77
2024/02/13 10:44:04;;;;;;;8.27;7.57;;;;;;;7.22;79.85;101073.34;5048578;28;20225;-80
2024/02/13 10:46:33;;;;;;;11.20;8.03;;;;;;;7.53;80.35;101057.88;5034892;28;20257;-79
2024/02/13 10:49:10;;;;;;;10.80;7.53;;;;;;;7.81;78.52;101073.56;5031900;28;20209;-79
2024/02/13 10:51:37;;;;;;;8.00;7.20;;;;;;;7.84;78.83;101095.25;5033784;28;20335;-78
2024/02/13 10:54:07;;;;;;;8.67;7.97;;;;;;;7.67;79.03;101107.31;5034530;28;20202;-77
2024/02/13 10:56:34;;;;;;;8.23;7.43;;;;;;;7.35;79.21;101116.72;5033674;28;20225;-78
2024/02/13 10:59:01;;;;;;;8.00;7.20;;;;;;;7.77;79.54;101090.91;5035947;28;20206;-78
2024/02/13 11:01:31;;;;;;;9.67;8.10;;;;;;;7.91;79.04;101089.22;5035031;28;20231;-77
2024/02/13 11:03:58;;;;;;;8.73;7.93;;;;;;;7.81;78.35;101122.94;5032683;28;20218;-78
2024/02/13 11:06:26;;;;;;;7.97;7.17;;;;;;;7.49;77.18;101132.38;5035209;28;20605;-78
2024/02/13 11:08:52;;;;;;;9.23;8.60;;;;;;;7.75;78.89;101123.81;5036290;28;20248;-78
2024/02/13 11:11:21;;;;;;;8.90;8.10;;;;;;;7.83;78.16;101109.13;5036331;28;20201;-78
2024/02/13 11:13:49;;;;;;;7.90;7.10;;;;;;;7.91;77.38;101132.53;5035033;28;20210;-80
2024/02/13 11:16:17;;;;;;;8.87;8.07;;;;;;;8.01;77.36;101151.59;5033413;28;20222;-80
2024/02/13 11:18:46;;;;;;;8.73;7.60;;;;;;;8.07;76.51;101162.06;5034200;28;20578;-80
2024/02/13 11:21:19;;;;;;;8.10;7.40;;;;;;;8.25;77.01;101163.81;5034590;28;20210;-79
2024/02/13 11:23:53;;;;;;;7.93;7.23;;;;;;;8.31;76.82;101167.28;5034700;28;20642;-79
2024/02/13 11:26:20;;;;;;;8.50;7.00;;;;;;;8.19;75.66;101195.03;5034297;28;20218;-80
2024/02/13 11:28:47;;;;;;;7.90;6.90;;;;;;;8.24;76.58;101194.16;5034708;28;20252;-80
2024/02/13 11:31:15;;;;;;;8.77;6.53;;;;;;;8.17;77.17;101192.41;5035211;28;20313;-78
2024/02/13 11:34:03;;;;;;;7.77;7.17;;;;;;;8.54;77.52;101174.28;5038796;28;20205;-80
2024/02/13 11:36:30;;;;;;;8.07;7.13;;;;;;;8.52;76.39;101189.03;5035766;28;20279;-79
2024/02/13 11:39:03;;;;;;;7.40;6.70;;;;;;;8.67;77.37;101175.19;5035162;28;20202;-80
2024/02/13 11:41:30;;;;;;;9.27;7.37;;;;;;;8.73;75.47;101186.47;5034775;28;20280;-80
2024/02/13 11:44:05;;;;;;;7.80;7.00;;;;;;;8.80;75.68;101204.69;5033666;28;20257;-79
2024/02/13 11:46:32;;;;;;;8.13;6.93;;;;;;;8.88;75.85;101208.16;5030848;28;20260;-79
2024/02/13 11:48:59;;;;;;;7.00;6.17;;;;;;;8.64;74.44;101224.63;5026267;28;20206;-80
2024/02/13 11:51:26;;;;;;;6.67;6.07;;;;;;;8.94;74.75;101227.28;5034093;28;20264;-80
2024/02/13 11:53:53;;;;;;;7.40;5.47;;;;;;;9.03;73.84;101246.38;5035887;28;20217;-78